createdAt,value
2018-12-06T00:00:45.575Z,18.80
2018-12-06T00:03:19.205Z,17.50
2018-12-06T00:05:47.730Z,17.50
2018-12-06T00:08:18.937Z,17.98
2018-12-06T00:10:49.702Z,19.00
2018-12-06T00:13:19.019Z,16.82
2018-12-06T00:15:50.110Z,17.07
2018-12-06T00:18:20.944Z,18.75
2018-12-06T00:20:52.203Z,17.27
2018-12-06T00:23:23.272Z,20.27
2018-12-06T00:25:54.121Z,18.98
2018-12-06T00:28:27.675Z,19.00
2018-12-06T00:30:58.022Z,19.70
2018-12-06T00:33:28.497Z,18.40
2018-12-06T00:35:58.900Z,20.30
2018-12-06T00:38:29.361Z,18.55
2018-12-06T00:41:03.358Z,17.75
2018-12-06T00:43:37.196Z,21.62
2018-12-06T00:46:11.176Z,21.05
2018-12-06T00:48:45.280Z,19.60
2018-12-06T00:51:16.453Z,19.85
2018-12-06T00:53:50.511Z,19.37
2018-12-06T00:56:23.845Z,18.65
2018-12-06T00:58:57.166Z,19.42
2018-12-06T01:01:30.430Z,18.87
2018-12-06T01:04:03.936Z,19.48
2018-12-06T01:06:34.509Z,18.00
2018-12-06T01:09:15.979Z,19.00
2018-12-06T01:11:51.540Z,17.48
2018-12-06T01:14:24.699Z,18.00
2018-12-06T01:16:58.055Z,18.20
2018-12-06T01:19:26.341Z,19.62
2018-12-06T01:21:56.785Z,18.52
2018-12-06T01:24:36.723Z,18.87
2018-12-06T01:27:07.610Z,19.98
2018-12-06T01:29:41.495Z,19.45
2018-12-06T01:32:10.748Z,19.67
2018-12-06T01:34:41.147Z,19.42
2018-12-06T01:37:14.788Z,20.45
2018-12-06T01:39:46.057Z,20.70
2018-12-06T01:42:14.617Z,19.48
2018-12-06T01:44:45.136Z,19.60
2018-12-06T01:47:16.095Z,18.70
2018-12-06T01:49:46.553Z,19.55
2018-12-06T01:52:17.859Z,19.00
2018-12-06T01:54:48.908Z,17.60
2018-12-06T01:57:19.947Z,17.67
2018-12-06T01:59:50.965Z,19.52
2018-12-06T02:02:22.025Z,18.30
2018-12-06T02:07:55.595Z,18.45
2018-12-06T02:10:26.263Z,17.82
2018-12-06T02:12:56.734Z,18.02
2018-12-06T02:15:27.121Z,18.20
2018-12-06T02:17:55.575Z,19.48
2018-12-06T02:20:24.861Z,18.98
2018-12-06T02:22:55.346Z,19.32
2018-12-06T02:25:25.859Z,17.80
2018-12-06T02:27:56.701Z,18.35
2018-12-06T02:30:45.344Z,19.07
2018-12-06T02:33:16.600Z,17.12
2018-12-06T02:35:45.756Z,18.25
2018-12-06T02:38:18.908Z,18.48
2018-12-06T02:40:52.311Z,19.05
2018-12-06T02:43:26.367Z,18.12
2018-12-06T02:45:55.225Z,15.75
2018-12-06T02:48:26.185Z,18.40
2018-12-06T02:50:57.379Z,17.57
2018-12-06T02:53:31.121Z,18.00
2018-12-06T02:56:01.812Z,17.70
2018-12-06T03:01:03.924Z,18.55
2018-12-06T03:03:37.152Z,18.35
2018-12-06T03:06:11.135Z,17.27
2018-12-06T03:08:40.006Z,19.17
2018-12-06T03:11:09.300Z,18.17
2018-12-06T03:13:44.328Z,18.07
2018-12-06T03:19:10.897Z,18.85
2018-12-06T03:21:44.921Z,17.73
2018-12-06T03:24:18.153Z,20.75
2018-12-06T03:26:53.709Z,17.35
2018-12-06T03:29:26.898Z,18.57
2018-12-06T03:32:00.094Z,17.40
2018-12-06T03:34:30.625Z,17.45
2018-12-06T03:36:59.454Z,17.55
2018-12-06T03:39:33.328Z,17.65
2018-12-06T03:42:02.105Z,16.32
2018-12-06T03:44:39.859Z,18.50
2018-12-06T03:47:11.367Z,17.17
2018-12-06T03:49:42.157Z,16.35
2018-12-06T03:52:11.005Z,18.15
2018-12-06T03:54:42.349Z,19.60
2018-12-06T03:57:13.535Z,18.70
2018-12-06T03:59:42.610Z,17.57
2018-12-06T04:02:22.580Z,16.85
2018-12-06T04:04:53.178Z,16.25
2018-12-06T04:10:18.192Z,18.02
2018-12-06T04:12:52.117Z,17.75
2018-12-06T04:15:25.445Z,17.07
2018-12-06T04:17:56.036Z,17.65
2018-12-06T04:20:29.374Z,18.30
2018-12-06T04:25:59.023Z,16.67
2018-12-06T04:28:32.874Z,16.73
2018-12-06T04:31:06.299Z,16.97
2018-12-06T04:33:40.298Z,17.52
2018-12-06T04:36:13.534Z,17.95
2018-12-06T04:38:44.382Z,18.10
2018-12-06T04:41:18.324Z,18.40
2018-12-06T04:43:49.571Z,17.62
2018-12-06T04:46:20.735Z,18.95
2018-12-06T04:48:51.305Z,17.12
2018-12-06T04:51:20.042Z,17.40
2018-12-06T04:53:49.080Z,17.82
2018-12-06T04:56:22.950Z,18.57
2018-12-06T04:58:53.316Z,19.52
2018-12-06T05:03:56.884Z,16.73
2018-12-06T05:06:27.917Z,19.20
2018-12-06T05:08:57.077Z,17.42
2018-12-06T05:11:30.914Z,16.85
2018-12-06T05:14:11.715Z,17.67
2018-12-06T05:16:42.282Z,20.12
2018-12-06T05:19:20.024Z,18.95
2018-12-06T05:21:49.158Z,18.70
2018-12-06T05:24:18.371Z,19.07
2018-12-06T05:26:53.157Z,19.37
2018-12-06T05:29:26.610Z,18.40
2018-12-06T05:32:02.079Z,18.40
2018-12-06T05:34:49.764Z,17.90
2018-12-06T05:37:31.110Z,17.65
2018-12-06T05:40:04.573Z,17.80
2018-12-06T05:42:35.830Z,17.20
2018-12-06T05:45:16.203Z,15.45
2018-12-06T05:47:50.600Z,17.48
2018-12-06T05:50:41.351Z,17.70
2018-12-06T05:53:21.666Z,15.60
2018-12-06T05:56:01.583Z,15.53
2018-12-06T05:58:32.384Z,15.83
2018-12-06T06:01:13.638Z,18.02
2018-12-06T06:06:29.405Z,19.23
2018-12-06T06:09:06.631Z,18.30
2018-12-06T06:11:37.063Z,17.37
2018-12-06T06:14:10.805Z,18.27
2018-12-06T06:16:46.034Z,17.57
2018-12-06T06:19:15.327Z,17.40
2018-12-06T06:21:49.219Z,18.27
2018-12-06T06:24:30.394Z,17.40
2018-12-06T06:27:04.749Z,17.73
2018-12-06T06:29:44.774Z,17.45
2018-12-06T06:32:15.277Z,17.12
2018-12-06T06:35:06.097Z,17.52
2018-12-06T06:37:39.294Z,18.40
2018-12-06T06:40:20.385Z,19.62
2018-12-06T06:43:00.986Z,17.73
2018-12-06T06:45:34.578Z,18.25
2018-12-06T06:48:03.899Z,19.30
2018-12-06T06:50:34.812Z,20.57
2018-12-06T06:53:05.624Z,18.30
2018-12-06T06:55:39.524Z,19.42
2018-12-06T06:58:20.050Z,19.25
2018-12-06T07:00:50.974Z,20.00
2018-12-06T07:03:20.200Z,21.02
2018-12-06T07:05:49.344Z,19.20
2018-12-06T07:08:18.380Z,19.37
2018-12-06T07:10:49.389Z,17.90
2018-12-06T07:13:18.350Z,20.05
2018-12-06T07:15:49.285Z,19.67
2018-12-06T07:18:29.901Z,20.92
2018-12-06T07:21:00.328Z,20.10
2018-12-06T07:23:47.503Z,22.80
2018-12-06T07:26:28.217Z,20.25
2018-12-06T07:29:01.664Z,20.68
2018-12-06T07:31:30.844Z,21.82
2018-12-06T07:34:08.648Z,20.92
2018-12-06T07:36:43.654Z,19.35
2018-12-06T07:39:14.062Z,20.68
2018-12-06T07:41:45.012Z,21.75
2018-12-06T07:44:14.095Z,20.68
2018-12-06T07:46:47.741Z,21.40
2018-12-06T07:49:16.914Z,21.75
2018-12-06T07:51:48.085Z,20.23
2018-12-06T07:54:19.250Z,20.43
2018-12-06T07:57:06.163Z,18.80
2018-12-06T07:59:37.319Z,18.73
2018-12-06T08:02:06.293Z,19.27
2018-12-06T08:04:37.300Z,20.15
2018-12-06T08:07:08.289Z,21.35
2018-12-06T08:09:42.267Z,21.12
2018-12-06T08:12:15.390Z,17.25
2018-12-06T08:14:49.302Z,18.57
2018-12-06T08:17:23.257Z,18.17
2018-12-06T08:20:10.407Z,18.32
2018-12-06T08:22:44.353Z,18.52
2018-12-06T08:25:24.239Z,18.17
2018-12-06T08:28:04.678Z,18.07
2018-12-06T08:30:33.208Z,17.82
2018-12-06T08:33:04.521Z,17.48
2018-12-06T08:35:33.389Z,18.62
2018-12-06T08:38:12.285Z,18.57
2018-12-06T08:40:43.522Z,16.90
2018-12-06T08:43:12.511Z,16.52
2018-12-06T08:45:52.833Z,16.30
2018-12-06T08:48:26.360Z,14.00
2018-12-06T08:50:57.480Z,16.35
2018-12-06T08:53:28.587Z,15.63
2018-12-06T08:56:02.478Z,14.13
2018-12-06T08:58:49.760Z,15.60
2018-12-06T09:01:20.891Z,14.30
2018-12-06T09:03:52.033Z,15.60
2018-12-06T09:06:23.178Z,15.15
2018-12-06T09:11:26.864Z,13.48
2018-12-06T09:14:04.454Z,13.88
2018-12-06T09:16:51.531Z,13.38
2018-12-06T09:19:25.405Z,14.10
2018-12-06T09:21:59.466Z,13.95
2018-12-06T09:24:30.610Z,14.40
2018-12-06T09:29:52.324Z,15.45
2018-12-06T09:32:25.965Z,12.98
2018-12-06T09:34:56.311Z,13.98
2018-12-06T09:37:34.349Z,14.53
2018-12-06T09:40:05.593Z,14.60
2018-12-06T09:42:34.821Z,15.70
2018-12-06T09:45:04.499Z,13.72
2018-12-06T09:47:33.763Z,14.33
2018-12-06T09:50:05.610Z,15.03
2018-12-06T09:52:39.441Z,14.83
2018-12-06T09:55:12.597Z,13.70
2018-12-06T09:57:53.061Z,14.15
2018-12-06T10:00:30.328Z,13.20
2018-12-06T10:03:17.600Z,11.83
2018-12-06T10:05:51.218Z,12.10
2018-12-06T10:08:27.043Z,10.48
2018-12-06T10:10:57.497Z,10.40
2018-12-06T10:13:35.310Z,11.03
2018-12-06T10:16:05.704Z,9.48
2018-12-06T10:18:34.663Z,8.50
2018-12-06T10:21:08.670Z,7.72
2018-12-06T10:23:49.251Z,8.57
2018-12-06T10:26:26.525Z,7.80
2018-12-06T10:28:55.693Z,7.13
2018-12-06T10:31:31.735Z,7.03
2018-12-06T10:34:02.819Z,7.10
2018-12-06T10:36:43.386Z,6.23
2018-12-06T10:39:14.063Z,6.30
2018-12-06T10:41:43.377Z,7.17
2018-12-06T10:44:18.084Z,6.60
2018-12-06T10:46:46.693Z,6.33
2018-12-06T10:49:18.073Z,6.60
2018-12-06T10:51:49.113Z,7.30
2018-12-06T10:54:29.622Z,7.20
2018-12-06T10:57:09.732Z,5.97
2018-12-06T10:59:40.373Z,6.57
2018-12-06T11:02:15.105Z,6.73
2018-12-06T11:04:44.660Z,6.17
2018-12-06T11:07:21.844Z,6.70
2018-12-06T11:09:56.617Z,6.77
2018-12-06T11:12:30.448Z,5.90
2018-12-06T11:15:05.007Z,6.60
2018-12-06T11:17:35.718Z,6.67
2018-12-06T11:20:06.484Z,7.00
2018-12-06T11:22:34.981Z,6.37
2018-12-06T11:25:06.399Z,6.87
2018-12-06T11:27:36.895Z,5.83
2018-12-06T11:30:07.768Z,7.03
2018-12-06T11:32:38.760Z,6.35
2018-12-06T11:35:07.797Z,7.70
2018-12-06T11:37:36.620Z,6.30
2018-12-06T11:40:07.689Z,7.33
2018-12-06T11:42:38.349Z,8.00
2018-12-06T11:45:09.625Z,6.72
2018-12-06T11:47:38.730Z,7.50
2018-12-06T11:50:12.319Z,7.27
2018-12-06T11:52:46.039Z,7.10
2018-12-06T11:55:21.895Z,7.83
2018-12-06T11:57:55.668Z,8.00
2018-12-06T12:00:26.186Z,7.17
2018-12-06T12:03:00.220Z,6.40
2018-12-06T12:05:33.895Z,6.70
2018-12-06T12:08:05.264Z,7.60
2018-12-06T12:10:40.162Z,6.67
2018-12-06T12:13:11.758Z,7.40
2018-12-06T12:15:45.527Z,6.93
2018-12-06T12:18:16.943Z,6.53
2018-12-06T12:20:51.449Z,6.90
2018-12-06T12:23:39.262Z,5.33
2018-12-06T12:26:18.087Z,5.83
2018-12-06T12:28:48.472Z,5.40
2018-12-06T12:31:19.519Z,5.30
2018-12-06T12:33:50.248Z,6.05
2018-12-06T12:36:19.707Z,6.45
2018-12-06T12:38:50.849Z,5.50
2018-12-06T12:41:24.995Z,5.70
2018-12-06T12:43:55.745Z,5.70
2018-12-06T12:46:30.942Z,6.75
2018-12-06T12:49:04.291Z,6.25
2018-12-06T12:51:35.491Z,7.25
2018-12-06T12:54:09.893Z,7.03
2018-12-06T12:56:40.947Z,6.65
2018-12-06T12:59:11.840Z,6.58
2018-12-06T13:01:42.620Z,6.72
2018-12-06T13:04:13.599Z,6.12
2018-12-06T13:06:47.472Z,7.50
2018-12-06T13:09:18.425Z,6.90
2018-12-06T13:11:47.679Z,7.60
2018-12-06T13:14:19.124Z,6.35
2018-12-06T13:19:27.921Z,6.90
2018-12-06T13:22:08.904Z,7.67
2018-12-06T13:24:39.891Z,6.97
2018-12-06T13:27:20.181Z,7.80
2018-12-06T13:30:03.358Z,6.85
2018-12-06T13:32:34.525Z,7.20
2018-12-06T13:35:06.210Z,6.80
2018-12-06T13:37:44.360Z,6.30
2018-12-06T13:40:15.321Z,6.17
2018-12-06T13:42:49.984Z,6.53
2018-12-06T13:45:27.636Z,6.62
2018-12-06T13:48:08.226Z,6.30
2018-12-06T13:50:39.072Z,6.28
2018-12-06T13:53:10.166Z,5.78
2018-12-06T13:55:41.099Z,6.55
2018-12-06T13:58:14.685Z,5.22
2018-12-06T14:00:48.565Z,5.30
2018-12-06T14:03:23.683Z,5.97
2018-12-06T14:06:04.394Z,5.80
2018-12-06T14:08:38.300Z,5.25
2018-12-06T14:11:16.505Z,5.50
2018-12-06T14:13:47.306Z,6.15
2018-12-06T14:16:21.075Z,5.37
2018-12-06T14:19:02.538Z,5.40
2018-12-06T14:24:11.339Z,5.45
2018-12-06T14:26:44.502Z,5.75
2018-12-06T14:29:18.455Z,5.72
2018-12-06T14:31:47.606Z,5.45
2018-12-06T14:34:25.126Z,5.00
2018-12-06T14:37:02.214Z,5.15
2018-12-06T14:39:33.248Z,5.17
2018-12-06T14:42:04.226Z,5.07
2018-12-06T14:44:33.221Z,4.92
2018-12-06T14:47:01.867Z,5.20
2018-12-06T14:49:39.533Z,5.53
2018-12-06T14:52:10.790Z,4.87
2018-12-06T14:54:41.683Z,4.58
2018-12-06T14:57:12.548Z,4.78
2018-12-06T14:59:43.445Z,4.37
2018-12-06T15:02:17.105Z,5.30
2018-12-06T15:04:54.125Z,5.42
2018-12-06T15:07:25.364Z,5.75
2018-12-06T15:09:54.261Z,5.87
2018-12-06T15:12:23.232Z,5.12
2018-12-06T15:14:52.516Z,4.87
2018-12-06T15:17:21.471Z,5.22
2018-12-06T15:19:52.462Z,5.33
2018-12-06T15:24:51.175Z,5.28
2018-12-06T15:27:22.695Z,5.72
2018-12-06T15:29:53.526Z,5.42
2018-12-06T15:32:22.408Z,5.05
2018-12-06T15:34:51.272Z,4.78
2018-12-06T15:37:22.057Z,5.08
2018-12-06T15:39:53.115Z,4.83
2018-12-06T15:42:24.103Z,4.53
2018-12-06T15:44:54.995Z,4.60
2018-12-06T15:47:25.590Z,4.53
2018-12-06T15:49:56.545Z,4.30
2018-12-06T15:52:27.607Z,5.12
2018-12-06T15:54:58.708Z,6.05
2018-12-06T15:57:29.489Z,6.85
2018-12-06T15:59:58.511Z,5.60
2018-12-06T16:02:29.356Z,8.05
2018-12-06T16:05:03.006Z,10.35
2018-12-06T16:07:34.259Z,8.50
2018-12-06T16:10:07.784Z,8.90
2018-12-06T16:12:38.188Z,9.35
2018-12-06T16:15:09.436Z,6.92
2018-12-06T16:17:38.106Z,5.78
2018-12-06T16:20:11.822Z,8.03
2018-12-06T16:22:45.835Z,7.75
2018-12-06T16:25:19.465Z,9.18
2018-12-06T16:27:53.287Z,10.45
2018-12-06T16:30:33.950Z,8.35
2018-12-06T16:33:04.549Z,7.10
2018-12-06T16:35:48.820Z,8.13
2018-12-06T16:38:18.459Z,7.47
2018-12-06T16:40:49.347Z,7.42
2018-12-06T16:43:17.917Z,6.58
2018-12-06T16:45:46.938Z,6.00
2018-12-06T16:48:15.751Z,7.25
2018-12-06T16:50:49.366Z,8.05
2018-12-06T16:53:23.154Z,7.53
2018-12-06T16:55:56.965Z,7.40
2018-12-06T16:58:37.890Z,6.92
2018-12-06T17:01:09.085Z,6.78
2018-12-06T17:03:39.933Z,7.75
2018-12-06T17:06:13.558Z,7.28
2018-12-06T17:08:47.390Z,6.92
2018-12-06T17:11:16.567Z,7.33
2018-12-06T17:13:50.433Z,6.90
2018-12-06T17:16:31.044Z,6.83
2018-12-06T17:19:04.386Z,6.70
2018-12-06T17:21:35.694Z,7.22
2018-12-06T17:24:06.561Z,7.35
2018-12-06T17:26:46.730Z,7.87
2018-12-06T17:29:19.907Z,7.72
2018-12-06T17:31:51.172Z,7.70
2018-12-06T17:34:26.836Z,8.20
2018-12-06T17:37:00.715Z,7.15
2018-12-06T17:39:32.071Z,7.70
2018-12-06T17:42:02.806Z,7.67
2018-12-06T17:44:37.683Z,7.67
2018-12-06T17:47:10.325Z,7.60
2018-12-06T17:49:45.746Z,7.53
2018-12-06T17:52:21.529Z,7.47
2018-12-06T17:55:02.220Z,6.87
2018-12-06T17:57:42.455Z,7.85
2018-12-06T18:00:13.606Z,7.35
2018-12-06T18:02:44.304Z,8.55
2018-12-06T18:05:24.709Z,8.10
2018-12-06T18:07:55.998Z,7.03
2018-12-06T18:10:32.589Z,8.58
2018-12-06T18:13:07.696Z,7.75
2018-12-06T18:15:39.562Z,8.60
2018-12-06T18:18:10.706Z,8.18
2018-12-06T18:20:49.196Z,9.05
2018-12-06T18:23:23.333Z,8.48
2018-12-06T18:25:57.295Z,8.58
2018-12-06T18:28:31.667Z,7.80
2018-12-06T18:31:02.745Z,8.65
2018-12-06T18:33:53.636Z,8.90
2018-12-06T18:36:24.676Z,7.67
2018-12-06T18:38:55.837Z,7.90
2018-12-06T18:41:26.954Z,7.37
2018-12-06T18:44:00.591Z,7.53
2018-12-06T18:46:31.907Z,7.37
2018-12-06T18:49:05.798Z,8.85
2018-12-06T18:51:46.413Z,8.60
2018-12-06T18:54:19.529Z,8.30
2018-12-06T18:56:49.965Z,8.75
2018-12-06T18:59:25.654Z,10.10
2018-12-06T19:01:56.161Z,8.75
2018-12-06T19:04:27.055Z,8.38
2018-12-06T19:06:55.955Z,8.83
2018-12-06T19:09:34.618Z,8.30
2018-12-06T19:12:03.850Z,9.45
2018-12-06T19:14:37.593Z,9.05
2018-12-06T19:17:15.562Z,8.70
2018-12-06T19:19:46.732Z,9.00
2018-12-06T19:22:17.914Z,7.83
2018-12-06T19:25:06.979Z,9.33
2018-12-06T19:27:40.784Z,8.00
2018-12-06T19:30:10.073Z,8.68
2018-12-06T19:32:40.941Z,8.78
2018-12-06T19:35:12.866Z,8.83
2018-12-06T19:37:42.449Z,8.00
2018-12-06T19:40:22.817Z,8.28
2018-12-06T19:43:03.594Z,8.05
2018-12-06T19:45:32.282Z,8.80
2018-12-06T19:48:06.039Z,9.08
2018-12-06T19:50:40.089Z,9.20
2018-12-06T19:53:15.642Z,10.05
2018-12-06T19:55:49.397Z,10.18
2018-12-06T19:58:18.657Z,9.00
2018-12-06T20:00:49.628Z,10.68
2018-12-06T20:03:23.625Z,9.13
2018-12-06T20:05:54.791Z,9.90
2018-12-06T20:08:28.605Z,9.90
2018-12-06T20:11:02.657Z,10.25
2018-12-06T20:13:36.805Z,10.72
2018-12-06T20:16:12.718Z,11.20
2018-12-06T20:18:43.732Z,9.45
2018-12-06T20:21:15.010Z,22.05
2018-12-06T20:23:49.026Z,12.40
2018-12-06T20:26:18.110Z,9.95
2018-12-06T20:28:49.170Z,9.20
2018-12-06T20:31:22.891Z,10.40
2018-12-06T20:33:57.893Z,10.65
2018-12-06T20:36:31.964Z,10.65
2018-12-06T20:39:07.642Z,11.60
2018-12-06T20:41:36.682Z,10.53
2018-12-06T20:44:05.884Z,9.00
2018-12-06T20:46:43.441Z,9.45
2018-12-06T20:49:14.093Z,9.10
2018-12-06T20:51:47.822Z,11.90
2018-12-06T20:54:33.163Z,9.65
2018-12-06T20:57:06.343Z,7.90
2018-12-06T20:59:46.583Z,9.08
2018-12-06T21:02:17.917Z,8.95
2018-12-06T21:04:49.282Z,8.15
2018-12-06T21:07:22.706Z,8.60
2018-12-06T21:09:52.853Z,7.58
2018-12-06T21:12:33.213Z,7.37
2018-12-06T21:15:06.898Z,8.30
2018-12-06T21:17:40.744Z,8.48
2018-12-06T21:20:13.952Z,7.87
2018-12-06T21:22:44.331Z,6.95
2018-12-06T21:25:19.968Z,7.70
2018-12-06T21:27:49.393Z,9.53
2018-12-06T21:30:20.290Z,8.98
2018-12-06T21:32:47.736Z,8.43
2018-12-06T21:35:21.999Z,8.85
2018-12-06T21:37:56.023Z,7.60
2018-12-06T21:40:30.157Z,8.33
2018-12-06T21:43:01.500Z,8.83
2018-12-06T21:45:33.646Z,8.13
2018-12-06T21:48:05.837Z,7.30
2018-12-06T21:50:43.981Z,7.45
2018-12-06T21:56:18.696Z,7.90
2018-12-06T21:58:48.010Z,7.42
2018-12-06T22:01:22.087Z,7.42
2018-12-06T22:03:52.978Z,7.12
2018-12-06T22:06:22.138Z,8.35
2018-12-06T22:08:55.979Z,7.80
2018-12-06T22:11:31.361Z,8.53
2018-12-06T22:14:07.077Z,8.08
2018-12-06T22:16:50.112Z,7.83
2018-12-06T22:19:27.154Z,8.33
2018-12-06T22:21:57.637Z,8.43
2018-12-06T22:24:31.525Z,6.83
2018-12-06T22:27:03.370Z,7.25
2018-12-06T22:29:36.494Z,8.58
2018-12-06T22:32:14.330Z,8.40
2018-12-06T22:34:45.305Z,8.20
2018-12-06T22:37:15.891Z,8.93
2018-12-06T22:39:48.870Z,8.13
2018-12-06T22:42:29.388Z,8.10
2018-12-06T22:45:08.915Z,8.23
2018-12-06T22:47:40.169Z,9.00
2018-12-06T22:50:31.153Z,8.68
2018-12-06T22:53:04.757Z,8.48
2018-12-06T22:55:38.652Z,8.73
2018-12-06T22:58:12.717Z,8.63
2018-12-06T23:03:43.672Z,7.40
2018-12-06T23:06:25.316Z,7.85
2018-12-06T23:08:59.755Z,8.20
2018-12-06T23:11:30.159Z,8.15
2018-12-06T23:14:01.329Z,7.70
2018-12-06T23:16:30.505Z,8.18
2018-12-06T23:19:10.732Z,7.53
2018-12-06T23:21:43.900Z,7.45
2018-12-06T23:24:14.280Z,6.72
2018-12-06T23:26:45.564Z,8.88
2018-12-06T23:29:16.726Z,7.70
2018-12-06T23:31:57.361Z,6.87
2018-12-06T23:34:26.034Z,6.72
2018-12-06T23:37:07.625Z,5.97
2018-12-06T23:39:41.092Z,6.65
2018-12-06T23:42:10.241Z,6.62
2018-12-06T23:44:43.974Z,6.40
2018-12-06T23:47:15.202Z,6.80
2018-12-06T23:49:49.510Z,5.62
2018-12-06T23:52:30.757Z,5.80
2018-12-06T23:55:02.088Z,5.37
2018-12-06T23:57:30.924Z,4.90
